Bellarthur, North Carolina
Current Conditions -  °F | °C
As of 10:55 PM on Tuesday 25 Nov 2014 (Local Time) from KPGV Reporting Station
Overcast Overcast  
Wind Chill: 54°   Ceiling: 400
Heat Index: 54°   Visibility: 7mi
Dew Point: 54°   Wind: 3mph
Humidity: 100%   Direction: 30°NNE
Pressure: 30.07"   Gusts: NA
Location:  35.59°N, 77.52°W
Report Text: KPGV 260355Z AUTO 03003KT 7SM OVC004 12/12 A3007 RMK AO2 P0001
Loading
Personal Weather Stations






























Interactive Weather Map New forecast layout! Learn more

10-Day Weather Forecast

Advertisements
Track Severe Weather on mobile